sensor_id;sensor_type;location;lat;lon;timestamp;pressure;altitude;pressure_sealevel;temperature;humidity
141;BME280;65;48.778;9.160;2023-08-17T00:01:16;98629.50;;;19.81;100.00
141;BME280;65;48.778;9.160;2023-08-17T00:04:02;98628.38;;;19.84;100.00
141;BME280;65;48.778;9.160;2023-08-17T00:06:48;98630.50;;;19.80;100.00
141;BME280;65;48.778;9.160;2023-08-17T00:09:33;98625.56;;;19.76;100.00
141;BME280;65;48.778;9.160;2023-08-17T00:12:19;98626.13;;;19.79;100.00
141;BME280;65;48.778;9.160;2023-08-17T00:15:05;98626.25;;;19.87;100.00
141;BME280;65;48.778;9.160;2023-08-17T00:17:51;98625.25;;;19.88;100.00
141;BME280;65;48.778;9.160;2023-08-17T00:20:37;98624.25;;;19.89;100.00
141;BME280;65;48.778;9.160;2023-08-17T00:23:23;98626.81;;;19.91;100.00
141;BME280;65;48.778;9.160;2023-08-17T00:26:09;98632.72;;;19.95;100.00
141;BME280;65;48.778;9.160;2023-08-17T00:28:55;98631.44;;;19.99;100.00
141;BME280;65;48.778;9.160;2023-08-17T00:31:41;98614.78;;;19.95;100.00
141;BME280;65;48.778;9.160;2023-08-17T00:37:50;98606.31;;;19.90;100.00
141;BME280;65;48.778;9.160;2023-08-17T00:40:36;98608.91;;;19.82;100.00
141;BME280;65;48.778;9.160;2023-08-17T00:43:21;98613.56;;;19.80;100.00
141;BME280;65;48.778;9.160;2023-08-17T00:46:07;98613.00;;;19.76;100.00
141;BME280;65;48.778;9.160;2023-08-17T00:48:54;98615.13;;;19.73;100.00
141;BME280;65;48.778;9.160;2023-08-17T00:51:40;98610.06;;;19.70;100.00
141;BME280;65;48.778;9.160;2023-08-17T00:54:27;98602.41;;;19.65;100.00
141;BME280;65;48.778;9.160;2023-08-17T00:57:12;98599.03;;;19.63;100.00
141;BME280;65;48.778;9.160;2023-08-17T00:59:59;98591.28;;;19.60;100.00
141;BME280;65;48.778;9.160;2023-08-17T01:02:46;98592.25;;;19.59;100.00
141;BME280;65;48.778;9.160;2023-08-17T01:05:32;98590.72;;;19.56;100.00
141;BME280;65;48.778;9.160;2023-08-17T01:08:18;98593.25;;;19.58;100.00
141;BME280;65;48.778;9.160;2023-08-17T01:16:56;98602.09;;;19.87;100.00
141;BME280;65;48.778;9.160;2023-08-17T01:19:44;98599.25;;;19.99;100.00
141;BME280;65;48.778;9.160;2023-08-17T01:22:32;98601.88;;;20.08;100.00
141;BME280;65;48.778;9.160;2023-08-17T01:25:21;98603.84;;;20.16;100.00
141;BME280;65;48.778;9.160;2023-08-17T01:28:07;98599.56;;;20.23;100.00
141;BME280;65;48.778;9.160;2023-08-17T01:33:54;98591.78;;;20.39;100.00
141;BME280;65;48.778;9.160;2023-08-17T01:36:46;98594.03;;;20.44;100.00
141;BME280;65;48.778;9.160;2023-08-17T01:39:37;98583.81;;;20.47;100.00
141;BME280;65;48.778;9.160;2023-08-17T01:42:24;98589.75;;;20.51;100.00
141;BME280;65;48.778;9.160;2023-08-17T01:45:11;98585.50;;;20.48;100.00
141;BME280;65;48.778;9.160;2023-08-17T01:47:57;98589.03;;;20.49;100.00
141;BME280;65;48.778;9.160;2023-08-17T01:50:43;98582.28;;;20.45;100.00
141;BME280;65;48.778;9.160;2023-08-17T01:53:28;98585.25;;;20.42;100.00
141;BME280;65;48.778;9.160;2023-08-17T01:56:14;98594.88;;;20.44;100.00
141;BME280;65;48.778;9.160;2023-08-17T01:59:00;98592.88;;;20.46;100.00
141;BME280;65;48.778;9.160;2023-08-17T02:01:46;98584.66;;;20.48;100.00
141;BME280;65;48.778;9.160;2023-08-17T02:04:32;98589.97;;;20.58;100.00
141;BME280;65;48.778;9.160;2023-08-17T02:07:17;98590.81;;;20.58;100.00
141;BME280;65;48.778;9.160;2023-08-17T02:10:12;98584.59;;;20.58;100.00
141;BME280;65;48.778;9.160;2023-08-17T02:12:58;98580.38;;;20.55;100.00
141;BME280;65;48.778;9.160;2023-08-17T02:15:44;98581.94;;;20.58;100.00
141;BME280;65;48.778;9.160;2023-08-17T02:18:30;98574.78;;;20.48;100.00
141;BME280;65;48.778;9.160;2023-08-17T02:21:18;98569.41;;;20.48;100.00
141;BME280;65;48.778;9.160;2023-08-17T02:24:04;98563.88;;;20.50;100.00
141;BME280;65;48.778;9.160;2023-08-17T02:26:50;98564.34;;;20.45;100.00
141;BME280;65;48.778;9.160;2023-08-17T02:29:36;98575.66;;;20.39;100.00
141;BME280;65;48.778;9.160;2023-08-17T02:32:21;98568.59;;;20.38;100.00
141;BME280;65;48.778;9.160;2023-08-17T02:35:07;98563.50;;;20.35;100.00
141;BME280;65;48.778;9.160;2023-08-17T02:37:53;98571.88;;;20.32;100.00
141;BME280;65;48.778;9.160;2023-08-17T02:40:39;98566.63;;;20.40;100.00
141;BME280;65;48.778;9.160;2023-08-17T02:43:25;98559.41;;;20.41;100.00
141;BME280;65;48.778;9.160;2023-08-17T02:46:10;98556.88;;;20.39;100.00
141;BME280;65;48.778;9.160;2023-08-17T02:48:56;98556.88;;;20.39;100.00
141;BME280;65;48.778;9.160;2023-08-17T02:51:42;98554.19;;;20.39;100.00
141;BME280;65;48.778;9.160;2023-08-17T02:54:28;98551.34;;;20.41;100.00
141;BME280;65;48.778;9.160;2023-08-17T02:57:13;98544.84;;;20.43;100.00
141;BME280;65;48.778;9.160;2023-08-17T02:59:59;98550.91;;;20.45;100.00
141;BME280;65;48.778;9.160;2023-08-17T03:02:45;98545.84;;;20.42;100.00
141;BME280;65;48.778;9.160;2023-08-17T03:05:30;98537.78;;;20.42;100.00
141;BME280;65;48.778;9.160;2023-08-17T03:08:16;98542.16;;;20.43;100.00
141;BME280;65;48.778;9.160;2023-08-17T03:11:02;98536.66;;;20.35;100.00
141;BME280;65;48.778;9.160;2023-08-17T03:13:48;98530.91;;;20.30;100.00
141;BME280;65;48.778;9.160;2023-08-17T03:16:34;98523.28;;;20.26;100.00
141;BME280;65;48.778;9.160;2023-08-17T03:19:20;98533.72;;;20.29;100.00
141;BME280;65;48.778;9.160;2023-08-17T03:22:06;98528.47;;;20.37;100.00
141;BME280;65;48.778;9.160;2023-08-17T03:24:54;98533.09;;;20.44;100.00
141;BME280;65;48.778;9.160;2023-08-17T03:27:40;98529.22;;;20.57;100.00
141;BME280;65;48.778;9.160;2023-08-17T03:30:26;98520.16;;;20.58;100.00
141;BME280;65;48.778;9.160;2023-08-17T03:33:12;98524.84;;;20.56;100.00
141;BME280;65;48.778;9.160;2023-08-17T03:35:58;98520.91;;;20.50;100.00
141;BME280;65;48.778;9.160;2023-08-17T03:38:43;98526.75;;;20.45;100.00
141;BME280;65;48.778;9.160;2023-08-17T03:41:29;98519.69;;;20.44;100.00
141;BME280;65;48.778;9.160;2023-08-17T03:44:15;98529.44;;;20.45;100.00
141;BME280;65;48.778;9.160;2023-08-17T03:47:01;98520.81;;;20.42;100.00
141;BME280;65;48.778;9.160;2023-08-17T03:49:47;98527.97;;;20.51;100.00
141;BME280;65;48.778;9.160;2023-08-17T03:52:33;98532.25;;;20.44;100.00
141;BME280;65;48.778;9.160;2023-08-17T03:55:18;98533.94;;;20.45;100.00
141;BME280;65;48.778;9.160;2023-08-17T03:58:04;98543.16;;;20.42;100.00
141;BME280;65;48.778;9.160;2023-08-17T04:00:51;98544.84;;;20.43;100.00
141;BME280;65;48.778;9.160;2023-08-17T04:03:36;98544.41;;;20.38;100.00
141;BME280;65;48.778;9.160;2023-08-17T04:06:22;98544.41;;;20.38;100.00
141;BME280;65;48.778;9.160;2023-08-17T04:09:08;98547.69;;;20.42;100.00
141;BME280;65;48.778;9.160;2023-08-17T04:11:53;98551.59;;;20.47;100.00
141;BME280;65;48.778;9.160;2023-08-17T04:14:40;98543.25;;;20.50;100.00
141;BME280;65;48.778;9.160;2023-08-17T04:17:26;98547.78;;;20.50;100.00
141;BME280;65;48.778;9.160;2023-08-17T04:20:11;98550.38;;;20.42;100.00
141;BME280;65;48.778;9.160;2023-08-17T04:22:57;98545.56;;;20.36;100.00
141;BME280;65;48.778;9.160;2023-08-17T04:25:43;98553.19;;;20.40;100.00
141;BME280;65;48.778;9.160;2023-08-17T04:28:29;98557.13;;;20.46;100.00
141;BME280;65;48.778;9.160;2023-08-17T04:34:56;98555.59;;;20.43;100.00
141;BME280;65;48.778;9.160;2023-08-17T04:37:42;98564.03;;;20.48;100.00
141;BME280;65;48.778;9.160;2023-08-17T04:40:27;98563.03;;;20.49;100.00
141;BME280;65;48.778;9.160;2023-08-17T04:43:13;98566.88;;;20.47;100.00
141;BME280;65;48.778;9.160;2023-08-17T04:45:59;98564.34;;;20.45;100.00
141;BME280;65;48.778;9.160;2023-08-17T04:48:45;98571.69;;;20.43;100.00
141;BME280;65;48.778;9.160;2023-08-17T04:51:30;98568.59;;;20.38;100.00
141;BME280;65;48.778;9.160;2023-08-17T04:54:16;98566.03;;;20.37;100.00
141;BME280;65;48.778;9.160;2023-08-17T04:57:02;98564.50;;;20.34;100.00
141;BME280;65;48.778;9.160;2023-08-17T04:59:50;98567.31;;;20.42;100.00
141;BME280;65;48.778;9.160;2023-08-17T05:02:37;98570.69;;;20.44;100.00
141;BME280;65;48.778;9.160;2023-08-17T05:05:29;98574.78;;;20.48;100.00
141;BME280;65;48.778;9.160;2023-08-17T05:08:14;98578.91;;;20.43;100.00
141;BME280;65;48.778;9.160;2023-08-17T05:11:00;98578.44;;;20.47;100.00
141;BME280;65;48.778;9.160;2023-08-17T05:13:46;98572.78;;;20.50;100.00
141;BME280;65;48.778;9.160;2023-08-17T05:16:31;98579.28;;;20.48;100.00
141;BME280;65;48.778;9.160;2023-08-17T05:19:17;98580.16;;;20.48;100.00
141;BME280;65;48.778;9.160;2023-08-17T05:22:03;98584.91;;;20.55;100.00
141;BME280;65;48.778;9.160;2023-08-17T05:24:49;98588.91;;;20.50;100.00
141;BME280;65;48.778;9.160;2023-08-17T05:27:34;98583.81;;;20.47;100.00
141;BME280;65;48.778;9.160;2023-08-17T05:30:20;98594.41;;;20.49;100.00
141;BME280;65;48.778;9.160;2023-08-17T05:33:06;98585.50;;;20.48;100.00
141;BME280;65;48.778;9.160;2023-08-17T05:35:55;98585.75;;;20.55;100.00
141;BME280;65;48.778;9.160;2023-08-17T05:38:41;98585.47;;;20.58;100.00
141;BME280;65;48.778;9.160;2023-08-17T05:41:26;98587.53;;;20.64;100.00
141;BME280;65;48.778;9.160;2023-08-17T05:44:37;98587.59;;;20.82;100.00
141;BME280;65;48.778;9.160;2023-08-17T05:47:23;98580.63;;;20.89;100.00
141;BME280;65;48.778;9.160;2023-08-17T05:50:09;98575.31;;;20.97;100.00
141;BME280;65;48.778;9.160;2023-08-17T05:52:55;98580.22;;;21.20;100.00
141;BME280;65;48.778;9.160;2023-08-17T05:55:40;98574.84;;;21.20;100.00
141;BME280;65;48.778;9.160;2023-08-17T05:58:26;98580.16;;;21.29;100.00
141;BME280;65;48.778;9.160;2023-08-17T06:01:12;98578.13;;;21.41;100.00
141;BME280;65;48.778;9.160;2023-08-17T06:03:57;98589.16;;;21.56;100.00
141;BME280;65;48.778;9.160;2023-08-17T06:06:43;98581.50;;;21.69;100.00
141;BME280;65;48.778;9.160;2023-08-17T06:09:29;98599.97;;;21.64;100.00
141;BME280;65;48.778;9.160;2023-08-17T06:12:14;98606.03;;;21.66;100.00
141;BME280;65;48.778;9.160;2023-08-17T06:15:04;98605.88;;;21.67;100.00
141;BME280;65;48.778;9.160;2023-08-17T06:17:50;98606.09;;;21.74;100.00
141;BME280;65;48.778;9.160;2023-08-17T06:20:36;98608.00;;;21.82;100.00
141;BME280;65;48.778;9.160;2023-08-17T06:23:23;98607.44;;;21.52;100.00
141;BME280;65;48.778;9.160;2023-08-17T06:26:09;98619.25;;;21.77;100.00
141;BME280;65;48.778;9.160;2023-08-17T06:28:54;98605.53;;;22.06;100.00
141;BME280;65;48.778;9.160;2023-08-17T06:31:40;98602.09;;;22.30;100.00
141;BME280;65;48.778;9.160;2023-08-17T06:34:26;98597.63;;;22.47;100.00
141;BME280;65;48.778;9.160;2023-08-17T06:37:12;98597.28;;;22.41;100.00
141;BME280;65;48.778;9.160;2023-08-17T06:39:57;98595.75;;;22.39;100.00
141;BME280;65;48.778;9.160;2023-08-17T06:42:43;98593.63;;;22.17;100.00
141;BME280;65;48.778;9.160;2023-08-17T06:45:30;98588.03;;;22.44;100.00
141;BME280;65;48.778;9.160;2023-08-17T06:48:16;98590.56;;;22.46;100.00
141;BME280;65;48.778;9.160;2023-08-17T06:51:02;98588.19;;;22.42;100.00
141;BME280;65;48.778;9.160;2023-08-17T06:53:50;98595.13;;;22.53;100.00
141;BME280;65;48.778;9.160;2023-08-17T06:56:35;98590.41;;;22.81;100.00
141;BME280;65;48.778;9.160;2023-08-17T06:59:21;98592.75;;;22.50;100.00
141;BME280;65;48.778;9.160;2023-08-17T07:02:07;98599.50;;;22.80;100.00
141;BME280;65;48.778;9.160;2023-08-17T07:04:53;98593.03;;;22.73;100.00
141;BME280;65;48.778;9.160;2023-08-17T07:07:39;98595.66;;;22.99;100.00
141;BME280;65;48.778;9.160;2023-08-17T07:10:25;98593.47;;;23.11;100.00
141;BME280;65;48.778;9.160;2023-08-17T07:13:11;98593.88;;;23.32;100.00
141;BME280;65;48.778;9.160;2023-08-17T07:15:57;98596.06;;;23.45;100.00
141;BME280;65;48.778;9.160;2023-08-17T07:18:43;98601.00;;;23.74;100.00
141;BME280;65;48.778;9.160;2023-08-17T07:21:28;98601.47;;;23.45;100.00
141;BME280;65;48.778;9.160;2023-08-17T07:24:15;98605.16;;;24.01;100.00
141;BME280;65;48.778;9.160;2023-08-17T07:27:01;98610.44;;;23.78;100.00
141;BME280;65;48.778;9.160;2023-08-17T07:29:47;98612.06;;;24.36;100.00
141;BME280;65;48.778;9.160;2023-08-17T07:32:33;98599.63;;;24.57;96.94
141;BME280;65;48.778;9.160;2023-08-17T07:35:19;98597.91;;;24.65;99.96
141;BME280;65;48.778;9.160;2023-08-17T07:38:05;98599.16;;;25.70;87.88
141;BME280;65;48.778;9.160;2023-08-17T07:40:51;98606.81;;;25.81;89.68
141;BME280;65;48.778;9.160;2023-08-17T07:43:37;98605.59;;;26.80;81.92
141;BME280;65;48.778;9.160;2023-08-17T07:46:22;98599.63;;;26.70;85.82
141;BME280;65;48.778;9.160;2023-08-17T07:49:08;98606.13;;;26.02;85.72
141;BME280;65;48.778;9.160;2023-08-17T07:51:54;98598.16;;;27.18;82.21
141;BME280;65;48.778;9.160;2023-08-17T07:54:40;98594.06;;;28.55;71.73
141;BME280;65;48.778;9.160;2023-08-17T07:57:25;98592.22;;;28.28;75.79
141;BME280;65;48.778;9.160;2023-08-17T08:00:11;98589.00;;;30.27;62.44
141;BME280;65;48.778;9.160;2023-08-17T08:02:57;98589.16;;;31.48;56.75
141;BME280;65;48.778;9.160;2023-08-17T08:05:43;98582.00;;;31.78;56.30
141;BME280;65;48.778;9.160;2023-08-17T08:08:29;98591.00;;;32.11;52.35
141;BME280;65;48.778;9.160;2023-08-17T08:11:14;98582.16;;;32.33;52.79
141;BME280;65;48.778;9.160;2023-08-17T08:14:00;98576.00;;;33.11;48.65
141;BME280;65;48.778;9.160;2023-08-17T08:16:46;98578.56;;;33.54;52.54
141;BME280;65;48.778;9.160;2023-08-17T08:19:32;98574.94;;;32.94;52.65
141;BME280;65;48.778;9.160;2023-08-17T08:22:18;98577.94;;;32.56;53.91
141;BME280;65;48.778;9.160;2023-08-17T08:25:04;98576.19;;;32.61;48.60
141;BME280;65;48.778;9.160;2023-08-17T08:27:50;98574.81;;;31.28;59.95
141;BME280;65;48.778;9.160;2023-08-17T08:30:36;98581.09;;;32.71;52.32
141;BME280;65;48.778;9.160;2023-08-17T08:33:22;98568.19;;;33.26;48.24
141;BME280;65;48.778;9.160;2023-08-17T08:36:07;98574.50;;;33.57;47.19
141;BME280;65;48.778;9.160;2023-08-17T08:38:53;98575.06;;;34.01;52.60
141;BME280;65;48.778;9.160;2023-08-17T08:42:00;98570.88;;;34.56;44.96
141;BME280;65;48.778;9.160;2023-08-17T08:44:46;98578.28;;;34.21;47.69
141;BME280;65;48.778;9.160;2023-08-17T08:47:34;98574.84;;;34.25;46.98
141;BME280;65;48.778;9.160;2023-08-17T08:50:22;98568.34;;;35.80;43.50
141;BME280;65;48.778;9.160;2023-08-17T08:53:14;98571.16;;;36.53;39.18
141;BME280;65;48.778;9.160;2023-08-17T08:56:01;98570.06;;;35.25;45.02
141;BME280;65;48.778;9.160;2023-08-17T08:59:12;98566.66;;;35.46;46.83
141;BME280;65;48.778;9.160;2023-08-17T09:01:58;98574.38;;;36.11;41.67
141;BME280;65;48.778;9.160;2023-08-17T09:04:45;98568.34;;;36.14;41.32
141;BME280;65;48.778;9.160;2023-08-17T09:07:32;98564.94;;;36.62;39.97
141;BME280;65;48.778;9.160;2023-08-17T09:10:18;98565.13;;;36.00;39.52
141;BME280;65;48.778;9.160;2023-08-17T09:13:04;98558.75;;;34.81;42.88
141;BME280;65;48.778;9.160;2023-08-17T09:15:50;98567.09;;;34.22;45.65
141;BME280;65;48.778;9.160;2023-08-17T09:18:35;98560.03;;;34.38;47.48
141;BME280;65;48.778;9.160;2023-08-17T09:21:23;98559.19;;;34.49;42.84
141;BME280;65;48.778;9.160;2023-08-17T09:24:08;98558.03;;;34.34;44.72
141;BME280;65;48.778;9.160;2023-08-17T09:26:54;98563.25;;;35.39;40.92
141;BME280;65;48.778;9.160;2023-08-17T09:29:44;98553.91;;;35.73;41.29
141;BME280;65;48.778;9.160;2023-08-17T09:32:31;98556.22;;;36.70;39.19
141;BME280;65;48.778;9.160;2023-08-17T09:35:18;98555.47;;;36.53;40.95
141;BME280;65;48.778;9.160;2023-08-17T09:38:03;98548.81;;;36.93;37.51
141;BME280;65;48.778;9.160;2023-08-17T09:40:49;98547.31;;;36.63;40.17
141;BME280;65;48.778;9.160;2023-08-17T09:43:35;98551.06;;;37.23;37.63
141;BME280;65;48.778;9.160;2023-08-17T09:46:22;98551.03;;;36.74;41.32
141;BME280;65;48.778;9.160;2023-08-17T09:49:09;98558.50;;;35.68;44.10
141;BME280;65;48.778;9.160;2023-08-17T09:51:59;98555.34;;;35.76;41.30
141;BME280;65;48.778;9.160;2023-08-17T09:54:45;98547.41;;;34.89;41.63
141;BME280;65;48.778;9.160;2023-08-17T09:57:32;98549.34;;;34.88;41.24
141;BME280;65;48.778;9.160;2023-08-17T10:00:19;98549.69;;;33.22;45.70
141;BME280;65;48.778;9.160;2023-08-17T10:03:05;98547.75;;;32.44;47.36
141;BME280;65;48.778;9.160;2023-08-17T10:05:56;98540.63;;;33.10;46.75
141;BME280;65;48.778;9.160;2023-08-17T10:08:47;98537.84;;;31.19;51.23
141;BME280;65;48.778;9.160;2023-08-17T10:11:37;98538.22;;;31.85;50.63
141;BME280;65;48.778;9.160;2023-08-17T10:14:29;98537.06;;;31.43;51.68
141;BME280;65;48.778;9.160;2023-08-17T10:17:25;98536.22;;;32.90;51.86
141;BME280;65;48.778;9.160;2023-08-17T10:20:14;98536.59;;;32.94;48.57
141;BME280;65;48.778;9.160;2023-08-17T10:23:17;98536.41;;;34.25;43.30
141;BME280;65;48.778;9.160;2023-08-17T10:26:04;98541.84;;;35.74;40.92
141;BME280;65;48.778;9.160;2023-08-17T10:28:51;98542.50;;;34.28;45.40
141;BME280;65;48.778;9.160;2023-08-17T10:31:38;98534.00;;;34.52;43.96
141;BME280;65;48.778;9.160;2023-08-17T10:34:24;98530.91;;;36.30;43.13
141;BME280;65;48.778;9.160;2023-08-17T10:37:11;98519.88;;;36.95;46.00
141;BME280;65;48.778;9.160;2023-08-17T10:39:57;98523.59;;;37.92;37.96
141;BME280;65;48.778;9.160;2023-08-17T10:42:43;98527.31;;;36.12;42.17
141;BME280;65;48.778;9.160;2023-08-17T10:45:35;98520.34;;;38.42;36.09
141;BME280;65;48.778;9.160;2023-08-17T10:48:25;98525.16;;;38.67;35.73
141;BME280;65;48.778;9.160;2023-08-17T10:51:12;98522.91;;;37.75;36.57
141;BME280;65;48.778;9.160;2023-08-17T10:54:02;98517.97;;;36.96;38.12
141;BME280;65;48.778;9.160;2023-08-17T10:56:48;98518.88;;;34.15;44.97
141;BME280;65;48.778;9.160;2023-08-17T10:59:34;98511.00;;;34.82;46.94
141;BME280;65;48.778;9.160;2023-08-17T11:02:22;98510.81;;;36.12;39.44
141;BME280;65;48.778;9.160;2023-08-17T11:05:07;98507.44;;;36.44;39.37
141;BME280;65;48.778;9.160;2023-08-17T11:07:53;98510.19;;;36.44;41.89
141;BME280;65;48.778;9.160;2023-08-17T11:10:39;98506.88;;;36.91;38.25
141;BME280;65;48.778;9.160;2023-08-17T11:13:29;98513.50;;;37.17;40.49
141;BME280;65;48.778;9.160;2023-08-17T11:16:17;98517.53;;;37.95;35.70
141;BME280;65;48.778;9.160;2023-08-17T11:19:05;98512.41;;;38.14;35.09
141;BME280;65;48.778;9.160;2023-08-17T11:21:51;98503.31;;;37.17;38.82
141;BME280;65;48.778;9.160;2023-08-17T11:24:38;98500.06;;;36.50;37.22
141;BME280;65;48.778;9.160;2023-08-17T11:27:25;98493.81;;;35.32;39.15
141;BME280;65;48.778;9.160;2023-08-17T11:30:12;98492.22;;;34.50;42.07
141;BME280;65;48.778;9.160;2023-08-17T11:32:58;98487.50;;;35.03;41.97
141;BME280;65;48.778;9.160;2023-08-17T11:35:44;98483.34;;;35.17;39.71
141;BME280;65;48.778;9.160;2023-08-17T11:38:38;98485.31;;;36.00;42.36
141;BME280;65;48.778;9.160;2023-08-17T11:41:24;98484.75;;;37.08;36.67
141;BME280;65;48.778;9.160;2023-08-17T11:44:10;98484.72;;;37.02;38.36
141;BME280;65;48.778;9.160;2023-08-17T11:46:56;98492.53;;;35.23;46.24
141;BME280;65;48.778;9.160;2023-08-17T11:49:42;98487.34;;;34.41;42.74
141;BME280;65;48.778;9.160;2023-08-17T11:52:29;98494.66;;;33.65;43.76
141;BME280;65;48.778;9.160;2023-08-17T11:55:17;98494.59;;;32.52;48.78
141;BME280;65;48.778;9.160;2023-08-17T11:58:04;98487.72;;;31.88;54.26
141;BME280;65;48.778;9.160;2023-08-17T12:00:49;98486.88;;;31.37;52.68
141;BME280;65;48.778;9.160;2023-08-17T12:03:35;98496.16;;;30.67;56.05
141;BME280;65;48.778;9.160;2023-08-17T12:06:21;98496.66;;;30.37;59.83
141;BME280;65;48.778;9.160;2023-08-17T12:09:07;98501.50;;;30.35;55.76
141;BME280;65;48.778;9.160;2023-08-17T12:11:59;98513.81;;;30.51;56.91
141;BME280;65;48.778;9.160;2023-08-17T12:14:46;98509.03;;;30.91;56.54
141;BME280;65;48.778;9.160;2023-08-17T12:17:33;98520.66;;;31.11;58.46
141;BME280;65;48.778;9.160;2023-08-17T12:20:20;98526.41;;;30.97;58.64
141;BME280;65;48.778;9.160;2023-08-17T12:23:05;98522.41;;;30.99;55.78
141;BME280;65;48.778;9.160;2023-08-17T12:25:55;98520.75;;;30.47;62.94
141;BME280;65;48.778;9.160;2023-08-17T12:28:41;98505.47;;;30.39;61.74
141;BME280;65;48.778;9.160;2023-08-17T12:31:29;98508.50;;;29.91;63.12
141;BME280;65;48.778;9.160;2023-08-17T12:34:14;98519.00;;;29.68;66.25
141;BME280;65;48.778;9.160;2023-08-17T12:37:00;98514.81;;;29.46;66.17
141;BME280;65;48.778;9.160;2023-08-17T12:39:46;98520.84;;;29.21;66.85
141;BME280;65;48.778;9.160;2023-08-17T12:42:33;98513.25;;;28.90;72.53
141;BME280;65;48.778;9.160;2023-08-17T12:45:18;98518.72;;;28.97;70.78
141;BME280;65;48.778;9.160;2023-08-17T12:48:04;98539.28;;;28.58;75.04
141;BME280;65;48.778;9.160;2023-08-17T12:50:50;98542.13;;;28.44;75.56
141;BME280;65;48.778;9.160;2023-08-17T12:53:36;98543.69;;;28.25;77.87
141;BME280;65;48.778;9.160;2023-08-17T12:56:21;98547.81;;;28.21;78.02
141;BME280;65;48.778;9.160;2023-08-17T12:59:07;98550.63;;;27.99;77.98
141;BME280;65;48.778;9.160;2023-08-17T13:01:53;98548.66;;;27.87;79.82
141;BME280;65;48.778;9.160;2023-08-17T13:04:39;98540.09;;;27.62;88.19
141;BME280;65;48.778;9.160;2023-08-17T13:07:25;98534.56;;;27.27;90.63
141;BME280;65;48.778;9.160;2023-08-17T13:10:11;98537.59;;;27.18;90.82
141;BME280;65;48.778;9.160;2023-08-17T13:12:57;98544.56;;;26.91;91.82
141;BME280;65;48.778;9.160;2023-08-17T13:15:44;98553.44;;;26.63;90.44
141;BME280;65;48.778;9.160;2023-08-17T13:18:30;98560.38;;;26.36;93.96
141;BME280;65;48.778;9.160;2023-08-17T13:21:16;98567.66;;;26.06;97.23
141;BME280;65;48.778;9.160;2023-08-17T13:24:03;98573.13;;;25.83;97.37
141;BME280;65;48.778;9.160;2023-08-17T13:26:49;98579.88;;;25.65;100.00
141;BME280;65;48.778;9.160;2023-08-17T13:29:38;98569.28;;;25.32;100.00
141;BME280;65;48.778;9.160;2023-08-17T13:32:25;98568.50;;;25.01;100.00
141;BME280;65;48.778;9.160;2023-08-17T13:35:11;98549.50;;;24.78;100.00
141;BME280;65;48.778;9.160;2023-08-17T13:37:56;98539.00;;;24.52;100.00
141;BME280;65;48.778;9.160;2023-08-17T13:40:43;98525.59;;;24.27;100.00
141;BME280;65;48.778;9.160;2023-08-17T13:43:28;98521.72;;;24.30;100.00
141;BME280;65;48.778;9.160;2023-08-17T13:46:14;98522.91;;;24.27;100.00
141;BME280;65;48.778;9.160;2023-08-17T13:49:00;98521.28;;;24.02;100.00
141;BME280;65;48.778;9.160;2023-08-17T13:51:46;98524.66;;;24.04;100.00
141;BME280;65;48.778;9.160;2023-08-17T13:54:31;98509.94;;;24.07;100.00
141;BME280;65;48.778;9.160;2023-08-17T13:57:17;98509.13;;;23.98;100.00
141;BME280;65;48.778;9.160;2023-08-17T14:00:03;98502.88;;;24.06;100.00
141;BME280;65;48.778;9.160;2023-08-17T14:02:52;98501.03;;;23.98;100.00
141;BME280;65;48.778;9.160;2023-08-17T14:05:38;98503.91;;;23.96;100.00
141;BME280;65;48.778;9.160;2023-08-17T14:08:24;98506.66;;;23.88;100.00
141;BME280;65;48.778;9.160;2023-08-17T14:11:09;98505.34;;;23.76;100.00
141;BME280;65;48.778;9.160;2023-08-17T14:13:55;98512.59;;;23.76;100.00
141;BME280;65;48.778;9.160;2023-08-17T14:16:42;98499.25;;;23.82;100.00
141;BME280;65;48.778;9.160;2023-08-17T14:19:27;98498.53;;;23.88;100.00
141;BME280;65;48.778;9.160;2023-08-17T14:22:14;98492.09;;;23.97;100.00
141;BME280;65;48.778;9.160;2023-08-17T14:25:19;98496.44;;;24.07;100.00
141;BME280;65;48.778;9.160;2023-08-17T14:28:05;98491.69;;;24.17;100.00
141;BME280;65;48.778;9.160;2023-08-17T14:30:53;98496.22;;;24.33;100.00
141;BME280;65;48.778;9.160;2023-08-17T14:33:38;98492.72;;;24.08;100.00
141;BME280;65;48.778;9.160;2023-08-17T14:36:24;98496.88;;;24.26;100.00
141;BME280;65;48.778;9.160;2023-08-17T14:39:10;98499.72;;;24.41;100.00
141;BME280;65;48.778;9.160;2023-08-17T14:41:55;98500.09;;;24.61;100.00
141;BME280;65;48.778;9.160;2023-08-17T14:44:41;98486.09;;;24.57;100.00
141;BME280;65;48.778;9.160;2023-08-17T14:47:27;98482.69;;;24.64;100.00
141;BME280;65;48.778;9.160;2023-08-17T14:50:12;98476.19;;;24.73;100.00
141;BME280;65;48.778;9.160;2023-08-17T14:52:59;98471.50;;;24.98;100.00
141;BME280;65;48.778;9.160;2023-08-17T14:55:47;98466.13;;;25.12;100.00
141;BME280;65;48.778;9.160;2023-08-17T14:58:33;98468.25;;;25.40;100.00
141;BME280;65;48.778;9.160;2023-08-17T15:01:19;98477.53;;;25.45;100.00
141;BME280;65;48.778;9.160;2023-08-17T15:04:05;98475.81;;;25.67;100.00
141;BME280;65;48.778;9.160;2023-08-17T15:06:51;98472.91;;;25.69;99.47
141;BME280;65;48.778;9.160;2023-08-17T15:09:39;98472.59;;;25.64;100.00
141;BME280;65;48.778;9.160;2023-08-17T15:12:25;98478.22;;;25.77;98.06
141;BME280;65;48.778;9.160;2023-08-17T15:15:11;98479.25;;;25.76;97.99
141;BME280;65;48.778;9.160;2023-08-17T15:17:56;98478.88;;;25.94;99.78
141;BME280;65;48.778;9.160;2023-08-17T15:20:42;98475.41;;;26.00;98.59
141;BME280;65;48.778;9.160;2023-08-17T15:23:28;98469.16;;;25.99;97.87
141;BME280;65;48.778;9.160;2023-08-17T15:26:14;98466.44;;;25.99;95.41
141;BME280;65;48.778;9.160;2023-08-17T15:29:00;98454.91;;;26.05;98.82
141;BME280;65;48.778;9.160;2023-08-17T15:31:45;98446.00;;;26.11;98.98
141;BME280;65;48.778;9.160;2023-08-17T15:34:31;98435.06;;;26.20;97.03
141;BME280;65;48.778;9.160;2023-08-17T15:37:17;98445.31;;;26.24;98.65
141;BME280;65;48.778;9.160;2023-08-17T15:40:03;98430.81;;;26.32;95.92
141;BME280;65;48.778;9.160;2023-08-17T15:42:49;98414.28;;;26.41;91.00
141;BME280;65;48.778;9.160;2023-08-17T15:45:34;98416.09;;;26.56;89.93
141;BME280;65;48.778;9.160;2023-08-17T15:48:20;98407.50;;;26.52;92.94
141;BME280;65;48.778;9.160;2023-08-17T15:51:06;98396.69;;;26.73;87.99
141;BME280;65;48.778;9.160;2023-08-17T15:53:51;98403.66;;;26.61;88.67